Flight Information

DEPARTURE
BOISE, ID
Elevation:
2871
Runways:
10L/28R - 10000x150 - ASPH-G
10R/28L - 9763x150 - ASPH-G
Active PE Departure:
10L - 10R
Current PE ATIS:
T
Altimeter:
29.91
Remarks:
V F R DEPARTURES CONTACT CLEARANCE DELIVERY, ADVISE ON COURSE HEADING, ALTITUDE, AND IF FLIGHT FOLLOWING IS REQUESTED.
ATIS:
123.9
Clearance Delivery:
125.9
Ground:
121.7
Tower:
BOISE TOWER 118.1
DESTINATION
,
Elevation:
TPA:
1000 (est.)


6520.2 NM71° True-17° Var54° HDG

Flight Plan:
(click to file on line)

1. Type
2. Aircraft Identification
3. Aircraft Type / Special Equipment
4. True Airspeed
kts
5. Departure Airport
(ICAO code)
6. Arriving Airport
(ICAO code)
7. Cruising Altitude
ft
8. Alternate Airport
(ICAO code)
9. Route of Flight
10. Remarks


00:00:00 Departure ATIS: Destination ATIS:

Clearance Limit:
Route:
Altitude: Expect in minutes
Frequency:
Transponder: (7500 Hijack / 7600 Lost Comms / 7700 Emergency)


KBOI 221620Z 00000KT 1/2SM R10R/1600V2600FT FG OVC002 00/00 A2991 RMK AO2 SNE1557 P0000 T00000000
Time: 2021-01-22T16:20:00Z
1611333971
Winds: calm
Visibility: 0.5 sm
Clouds (AGL): OVC 200
Temperature: 0.0 C
Dew Point: 0.0 C
Pressure: 29.911417 in Hgbr


Notes:

Data extracted from FAA Digital Chart Supplement. Effective: 0901Z Thursday, Dec 31, 2020 to 0901Z Thursday, Jan 28, 2021
Current ATIS data is provided courtisy of PilotEdge.